createdAt,value
2023-08-26T00:02:00.701Z,3.97
2023-08-26T00:04:48.485Z,4.10
2023-08-26T00:07:35.532Z,3.80
2023-08-26T00:10:22.569Z,4.00
2023-08-26T00:13:09.615Z,4.30
2023-08-26T00:15:56.667Z,4.07
2023-08-26T00:18:43.844Z,3.80
2023-08-26T00:21:32.518Z,3.93
2023-08-26T00:24:20.512Z,4.10
2023-08-26T00:27:07.498Z,4.23
2023-08-26T00:29:54.445Z,4.00
2023-08-26T00:32:41.619Z,4.20
2023-08-26T00:35:29.052Z,4.17
2023-08-26T00:38:16.241Z,4.30
2023-08-26T00:41:03.358Z,4.63
2023-08-26T00:43:51.686Z,4.40
2023-08-26T00:46:39.156Z,4.20
2023-08-26T00:49:26.325Z,4.47
2023-08-26T00:52:13.356Z,4.43
2023-08-26T00:55:00.330Z,4.90
2023-08-26T00:57:47.439Z,4.97
2023-08-26T01:00:37.988Z,4.63
2023-08-26T01:03:25.379Z,4.07
2023-08-26T01:06:12.727Z,4.43
2023-08-26T01:09:00.045Z,4.17
2023-08-26T01:12:07.880Z,4.57
2023-08-26T01:15:10.291Z,4.77
2023-08-26T01:17:58.046Z,4.77
2023-08-26T01:20:45.945Z,4.93
2023-08-26T01:23:41.062Z,4.50
2023-08-26T01:26:28.038Z,5.07
2023-08-26T01:29:15.102Z,4.80
2023-08-26T01:32:18.020Z,4.63
2023-08-26T01:35:08.488Z,4.60
2023-08-26T01:37:56.478Z,5.10
2023-08-26T01:40:51.890Z,4.47
2023-08-26T01:43:39.543Z,4.73
2023-08-26T01:46:38.238Z,4.63
2023-08-26T01:49:25.399Z,4.73
2023-08-26T01:52:13.754Z,4.10
2023-08-26T01:55:00.938Z,4.73
2023-08-26T01:57:48.103Z,4.47
2023-08-26T02:00:35.128Z,4.73
2023-08-26T02:03:22.480Z,4.40
2023-08-26T02:06:10.717Z,4.20
2023-08-26T02:08:57.689Z,4.40
2023-08-26T02:11:44.830Z,5.00
2023-08-26T02:14:32.145Z,4.63
2023-08-26T02:17:19.610Z,4.70
2023-08-26T02:20:08.617Z,3.83
2023-08-26T02:22:55.673Z,3.63
2023-08-26T02:25:43.073Z,3.80
2023-08-26T02:28:30.176Z,4.20
2023-08-26T02:31:17.356Z,4.00
2023-08-26T02:34:05.408Z,4.50
2023-08-26T02:36:53.023Z,4.10
2023-08-26T02:39:40.484Z,4.00
2023-08-26T02:42:30.496Z,3.93
2023-08-26T02:45:17.706Z,3.60
2023-08-26T02:48:05.596Z,3.17
2023-08-26T02:51:01.514Z,3.20
2023-08-26T02:53:48.716Z,3.70
2023-08-26T02:56:35.692Z,3.60
2023-08-26T02:59:22.684Z,3.40
2023-08-26T03:02:10.603Z,3.30
2023-08-26T03:04:59.054Z,3.20
2023-08-26T03:07:46.204Z,3.10
2023-08-26T03:10:33.347Z,3.70
2023-08-26T03:13:21.852Z,4.30
2023-08-26T03:16:11.258Z,3.50
2023-08-26T03:18:58.399Z,4.07
2023-08-26T03:21:45.515Z,3.80
2023-08-26T03:24:37.038Z,4.00
2023-08-26T03:27:24.048Z,4.03
2023-08-26T03:30:13.587Z,4.37
2023-08-26T03:33:01.058Z,4.67
2023-08-26T03:35:48.808Z,4.30
2023-08-26T03:38:36.131Z,4.90
2023-08-26T03:41:23.208Z,4.40
2023-08-26T03:44:10.309Z,5.23
2023-08-26T03:46:57.365Z,4.87
2023-08-26T03:49:44.362Z,4.07
2023-08-26T03:52:31.478Z,4.70
2023-08-26T03:55:18.840Z,4.10
2023-08-26T03:58:05.908Z,3.77
2023-08-26T04:01:00.072Z,4.13
2023-08-26T04:03:51.748Z,3.70
2023-08-26T04:06:38.855Z,3.77
2023-08-26T04:09:26.131Z,3.97
2023-08-26T04:12:13.728Z,3.83
2023-08-26T04:15:00.837Z,3.60
2023-08-26T04:17:47.971Z,4.30
2023-08-26T04:20:35.077Z,3.73
2023-08-26T04:23:22.427Z,3.77
2023-08-26T04:26:09.520Z,4.20
2023-08-26T04:28:56.580Z,3.60
2023-08-26T04:31:46.046Z,3.50
2023-08-26T04:34:35.458Z,3.50
2023-08-26T04:37:23.576Z,3.63
2023-08-26T04:40:14.034Z,2.97
2023-08-26T04:43:04.764Z,3.10
2023-08-26T04:45:53.657Z,2.90
2023-08-26T04:48:40.985Z,3.10
2023-08-26T04:51:28.002Z,2.67
2023-08-26T04:54:14.968Z,3.00
2023-08-26T04:57:02.218Z,2.80
2023-08-26T04:59:49.237Z,2.90
2023-08-26T05:02:36.674Z,3.20
2023-08-26T05:05:23.925Z,2.90
2023-08-26T05:08:10.974Z,2.93
2023-08-26T05:11:00.272Z,2.83
2023-08-26T05:13:47.285Z,2.97
2023-08-26T05:16:34.336Z,3.13
2023-08-26T05:19:22.945Z,3.13
2023-08-26T05:22:09.933Z,2.57
2023-08-26T05:24:56.956Z,3.10
2023-08-26T05:27:44.725Z,2.63
2023-08-26T05:30:34.513Z,3.10
2023-08-26T05:33:21.632Z,3.40
2023-08-26T05:36:08.605Z,3.10
2023-08-26T05:38:55.652Z,3.37
2023-08-26T05:41:44.076Z,3.23
2023-08-26T05:44:31.057Z,3.03
2023-08-26T05:47:18.088Z,3.00
2023-08-26T05:50:05.816Z,3.53
2023-08-26T05:52:53.361Z,3.30
2023-08-26T05:55:45.146Z,3.17
2023-08-26T05:58:32.160Z,2.97
2023-08-26T06:01:20.008Z,2.80
2023-08-26T06:04:08.101Z,3.03
2023-08-26T06:06:55.137Z,3.00
2023-08-26T06:09:42.135Z,3.10
2023-08-26T06:12:29.119Z,3.23
2023-08-26T06:15:16.295Z,2.83
2023-08-26T06:18:04.700Z,3.20
2023-08-26T06:20:52.855Z,3.07
2023-08-26T06:23:39.841Z,3.00
2023-08-26T06:26:26.858Z,2.80
2023-08-26T06:29:16.890Z,2.53
2023-08-26T06:32:04.094Z,2.70
2023-08-26T06:34:55.163Z,2.47
2023-08-26T06:37:42.119Z,2.80
2023-08-26T06:40:32.303Z,2.53
2023-08-26T06:43:19.296Z,2.93
2023-08-26T06:46:06.478Z,2.73
2023-08-26T06:48:53.648Z,2.97
2023-08-26T06:51:40.717Z,2.93
2023-08-26T06:54:27.901Z,2.97
2023-08-26T06:57:14.972Z,2.63
2023-08-26T07:00:04.283Z,2.80
2023-08-26T07:02:51.615Z,2.70
2023-08-26T07:05:39.736Z,2.80
2023-08-26T07:08:26.812Z,3.00
2023-08-26T07:11:14.255Z,3.03
2023-08-26T07:14:01.268Z,2.60
2023-08-26T07:16:49.506Z,2.70
2023-08-26T07:19:36.479Z,2.80
2023-08-26T07:22:29.682Z,3.13
2023-08-26T07:25:18.579Z,3.10
2023-08-26T07:28:05.755Z,3.50
2023-08-26T07:30:54.031Z,3.30
2023-08-26T07:33:41.020Z,3.40
2023-08-26T07:36:27.971Z,3.30
2023-08-26T07:39:14.924Z,3.27
2023-08-26T07:42:01.896Z,3.70
2023-08-26T07:44:48.895Z,3.80
2023-08-26T07:50:26.595Z,3.47
2023-08-26T07:53:13.590Z,4.47
2023-08-26T07:56:00.584Z,4.03
2023-08-26T07:58:47.565Z,3.97
2023-08-26T08:01:34.664Z,4.00
2023-08-26T08:04:21.659Z,4.50
2023-08-26T08:07:08.668Z,4.00
2023-08-26T08:09:56.490Z,4.60
2023-08-26T08:12:43.521Z,4.00
2023-08-26T08:15:30.662Z,4.53
2023-08-26T08:18:17.682Z,4.80
2023-08-26T08:21:05.590Z,5.10
2023-08-26T08:23:52.594Z,5.10
2023-08-26T08:26:41.739Z,4.67
2023-08-26T08:29:28.731Z,5.23
2023-08-26T08:32:15.682Z,4.90
2023-08-26T08:35:04.927Z,5.40
2023-08-26T08:37:51.955Z,5.30
2023-08-26T08:40:39.886Z,5.27
2023-08-26T08:43:31.297Z,5.17
2023-08-26T08:46:20.069Z,5.03
2023-08-26T08:49:07.601Z,5.00
2023-08-26T08:51:55.293Z,5.13
2023-08-26T08:54:45.155Z,4.37
2023-08-26T08:57:35.614Z,4.57
2023-08-26T09:00:25.063Z,4.60
2023-08-26T09:03:12.972Z,4.50
2023-08-26T09:06:00.327Z,4.17
2023-08-26T09:08:48.815Z,4.20
2023-08-26T09:11:36.239Z,4.40
2023-08-26T09:14:24.409Z,4.60
2023-08-26T09:17:18.959Z,4.47
2023-08-26T09:20:07.423Z,4.20
2023-08-26T09:23:04.337Z,4.27
2023-08-26T09:25:54.254Z,4.50
2023-08-26T09:28:48.123Z,4.30
2023-08-26T09:31:46.649Z,4.20
2023-08-26T09:34:34.435Z,4.27
2023-08-26T09:37:30.650Z,4.20
2023-08-26T09:40:18.463Z,3.53
2023-08-26T09:43:06.106Z,3.77
2023-08-26T09:45:57.626Z,3.23
2023-08-26T09:48:45.231Z,3.67
2023-08-26T09:51:32.684Z,3.23
2023-08-26T09:54:22.644Z,3.67
2023-08-26T09:57:09.770Z,3.77
2023-08-26T09:59:56.899Z,4.20
2023-08-26T10:03:02.659Z,3.37
2023-08-26T10:05:53.416Z,4.00
2023-08-26T10:08:43.535Z,3.60
2023-08-26T10:11:30.808Z,3.60
2023-08-26T10:14:19.371Z,3.17
2023-08-26T10:17:09.187Z,3.80
2023-08-26T10:19:57.206Z,4.10
2023-08-26T10:22:44.338Z,3.40
2023-08-26T10:25:32.300Z,3.70
2023-08-26T10:28:20.264Z,3.50
2023-08-26T10:31:08.314Z,3.73
2023-08-26T10:34:01.697Z,3.10
2023-08-26T10:36:50.754Z,3.63
2023-08-26T10:39:37.818Z,3.70
2023-08-26T10:42:25.031Z,3.30
2023-08-26T10:45:15.096Z,3.43
2023-08-26T10:48:02.189Z,3.97
2023-08-26T10:51:00.732Z,3.60
2023-08-26T10:53:49.811Z,3.50
2023-08-26T10:56:40.631Z,3.30
2023-08-26T10:59:40.550Z,3.50
2023-08-26T11:02:28.867Z,3.33
2023-08-26T11:05:15.992Z,3.50
2023-08-26T11:08:03.712Z,3.07
2023-08-26T11:10:52.272Z,3.60
2023-08-26T11:13:41.780Z,3.43
2023-08-26T11:16:30.071Z,3.57
2023-08-26T11:19:23.869Z,3.43
2023-08-26T11:22:11.799Z,3.23
2023-08-26T11:24:58.861Z,3.10
2023-08-26T11:27:46.056Z,3.33
2023-08-26T11:30:43.998Z,3.40
2023-08-26T11:33:32.051Z,3.80
2023-08-26T11:36:23.424Z,3.90
2023-08-26T11:39:19.720Z,3.70
2023-08-26T11:42:14.552Z,3.50
2023-08-26T11:45:01.531Z,3.20
2023-08-26T11:47:48.828Z,3.70
2023-08-26T11:50:36.277Z,3.40
2023-08-26T11:53:25.448Z,3.60
2023-08-26T11:56:12.889Z,3.60
2023-08-26T11:58:59.885Z,3.20
2023-08-26T12:01:47.596Z,3.20
2023-08-26T12:04:38.365Z,3.67
2023-08-26T12:07:32.156Z,3.47
2023-08-26T12:10:19.874Z,3.30
2023-08-26T12:13:07.444Z,3.30
2023-08-26T12:15:54.428Z,3.33
2023-08-26T12:18:42.533Z,3.33
2023-08-26T12:21:32.685Z,3.40
2023-08-26T12:24:24.387Z,3.37
2023-08-26T12:27:12.174Z,3.33
2023-08-26T12:29:59.385Z,3.43
2023-08-26T12:32:47.956Z,3.70
2023-08-26T12:35:36.010Z,3.70
2023-08-26T12:38:24.041Z,3.73
2023-08-26T12:41:11.171Z,3.40
2023-08-26T12:43:58.246Z,3.67
2023-08-26T12:46:45.421Z,3.50
2023-08-26T12:49:32.412Z,3.63
2023-08-26T12:52:19.398Z,3.63
2023-08-26T12:55:06.630Z,3.50
2023-08-26T12:57:53.691Z,3.60
2023-08-26T13:00:40.724Z,3.67
2023-08-26T13:03:27.784Z,4.00
2023-08-26T13:06:15.154Z,3.20
2023-08-26T13:09:02.246Z,3.70
2023-08-26T13:11:49.217Z,4.53
2023-08-26T13:14:36.341Z,4.10
2023-08-26T13:17:24.521Z,4.80
2023-08-26T13:20:13.267Z,3.87
2023-08-26T13:23:01.810Z,4.23
2023-08-26T13:25:48.942Z,4.10
2023-08-26T13:28:35.949Z,4.47
2023-08-26T13:31:23.070Z,3.83
2023-08-26T13:34:10.330Z,3.77
2023-08-26T13:36:57.275Z,3.97
2023-08-26T13:39:44.914Z,3.97
2023-08-26T13:42:31.882Z,4.53
2023-08-26T13:45:18.885Z,4.43
2023-08-26T13:48:06.302Z,4.10
2023-08-26T13:50:53.352Z,4.27
2023-08-26T13:53:40.630Z,4.70
2023-08-26T13:56:27.639Z,4.80
2023-08-26T13:59:14.734Z,4.63
2023-08-26T14:02:01.914Z,4.80
2023-08-26T14:04:48.937Z,4.47
2023-08-26T14:07:36.035Z,4.67
2023-08-26T14:10:23.016Z,4.70
2023-08-26T14:13:10.969Z,4.87
2023-08-26T14:15:58.032Z,4.30
2023-08-26T14:18:45.070Z,4.13
2023-08-26T14:21:32.046Z,3.90
2023-08-26T14:24:18.996Z,3.50
2023-08-26T14:27:05.965Z,3.70
2023-08-26T14:29:53.003Z,3.60
2023-08-26T14:32:40.103Z,3.90
2023-08-26T14:35:27.284Z,3.60
2023-08-26T14:38:14.242Z,3.80
2023-08-26T14:41:01.246Z,3.80
2023-08-26T14:43:49.730Z,3.83
2023-08-26T14:46:36.748Z,3.90
2023-08-26T14:49:23.760Z,3.70
2023-08-26T14:52:10.750Z,3.23
2023-08-26T14:54:57.778Z,3.43
2023-08-26T14:57:44.744Z,3.67
2023-08-26T15:00:31.909Z,3.60
2023-08-26T15:03:18.962Z,3.37
2023-08-26T15:06:06.114Z,3.43
2023-08-26T15:08:53.139Z,3.30
2023-08-26T15:11:40.511Z,4.37
2023-08-26T15:14:27.476Z,4.07
2023-08-26T15:17:14.444Z,3.90
2023-08-26T15:20:01.461Z,4.07
2023-08-26T15:22:48.497Z,3.10
2023-08-26T15:25:35.470Z,2.20
2023-08-26T15:28:22.936Z,2.63
2023-08-26T15:31:09.987Z,2.27
2023-08-26T15:33:57.001Z,1.70
2023-08-26T15:36:44.021Z,2.10
2023-08-26T15:39:31.108Z,1.90
2023-08-26T15:42:18.088Z,1.90
2023-08-26T15:45:05.389Z,1.90
2023-08-26T15:47:53.347Z,1.83
2023-08-26T15:50:40.417Z,1.70
2023-08-26T15:53:28.273Z,1.73
2023-08-26T15:56:15.296Z,1.30
2023-08-26T15:59:02.637Z,1.47
2023-08-26T16:01:49.607Z,1.20
2023-08-26T16:04:36.581Z,1.43
2023-08-26T16:07:23.769Z,1.57
2023-08-26T16:10:10.989Z,1.70
2023-08-26T16:12:58.616Z,1.50
2023-08-26T16:15:45.948Z,1.57
2023-08-26T16:18:34.100Z,1.37
2023-08-26T16:21:23.296Z,1.57
2023-08-26T16:24:10.871Z,1.67
2023-08-26T16:26:57.856Z,1.77
2023-08-26T16:29:44.956Z,1.70
2023-08-26T16:32:34.036Z,1.57
2023-08-26T16:35:21.104Z,1.70
2023-08-26T16:38:08.327Z,1.50
2023-08-26T16:40:55.413Z,1.60
2023-08-26T16:43:42.497Z,1.80
2023-08-26T16:46:29.696Z,1.70
2023-08-26T16:49:16.948Z,1.60
2023-08-26T16:52:04.269Z,1.70
2023-08-26T16:54:51.367Z,1.60
2023-08-26T16:57:38.369Z,1.80
2023-08-26T17:00:25.387Z,1.73
2023-08-26T17:03:12.565Z,1.50
2023-08-26T17:05:59.655Z,1.63
2023-08-26T17:08:46.831Z,1.77
2023-08-26T17:11:33.828Z,1.83
2023-08-26T17:14:21.078Z,1.70
2023-08-26T17:17:08.402Z,1.90
2023-08-26T17:19:55.427Z,1.53
2023-08-26T17:22:42.421Z,1.93
2023-08-26T17:25:29.483Z,1.37
2023-08-26T17:28:17.519Z,1.63
2023-08-26T17:31:04.658Z,1.70
2023-08-26T17:33:51.632Z,1.63
2023-08-26T17:36:38.629Z,1.67
2023-08-26T17:39:25.588Z,1.87
2023-08-26T17:42:12.623Z,1.60
2023-08-26T17:44:59.586Z,1.60
2023-08-26T17:47:46.875Z,1.50
2023-08-26T17:50:33.965Z,1.90
2023-08-26T17:53:22.857Z,1.70
2023-08-26T17:56:09.844Z,1.90
2023-08-26T17:58:56.865Z,1.70
2023-08-26T18:01:43.991Z,1.80
2023-08-26T18:04:33.248Z,1.90
2023-08-26T18:07:20.288Z,1.90
2023-08-26T18:10:07.306Z,2.00
2023-08-26T18:12:55.097Z,1.87
2023-08-26T18:15:42.243Z,2.00
2023-08-26T18:18:29.245Z,1.97
2023-08-26T18:21:16.305Z,2.30
2023-08-26T18:24:03.638Z,2.07
2023-08-26T18:26:50.710Z,2.10
2023-08-26T18:29:41.052Z,2.30
2023-08-26T18:32:28.086Z,2.23
2023-08-26T18:35:15.123Z,2.13
2023-08-26T18:38:02.192Z,2.20
2023-08-26T18:40:57.974Z,2.40
2023-08-26T18:43:44.984Z,2.37
2023-08-26T18:46:32.003Z,2.43
2023-08-26T18:49:20.175Z,2.37
2023-08-26T18:52:07.436Z,2.00
2023-08-26T18:54:54.520Z,2.20
2023-08-26T18:57:42.922Z,2.03
2023-08-26T19:00:31.684Z,2.07
2023-08-26T19:03:19.407Z,2.33
2023-08-26T19:06:07.852Z,2.40
2023-08-26T19:08:54.882Z,2.00
2023-08-26T19:11:41.922Z,2.10
2023-08-26T19:14:28.877Z,2.20
2023-08-26T19:17:16.565Z,2.10
2023-08-26T19:20:04.217Z,2.00
2023-08-26T19:22:51.179Z,2.20
2023-08-26T19:25:39.173Z,2.63
2023-08-26T19:28:26.316Z,2.00
2023-08-26T19:31:15.087Z,2.07
2023-08-26T19:34:02.105Z,2.20
2023-08-26T19:36:49.062Z,2.27
2023-08-26T19:39:36.102Z,2.10
2023-08-26T19:42:24.199Z,2.10
2023-08-26T19:45:11.362Z,2.20
2023-08-26T19:47:59.040Z,2.63
2023-08-26T19:50:46.856Z,2.20
2023-08-26T19:53:33.826Z,2.20
2023-08-26T19:56:20.907Z,2.30
2023-08-26T19:59:07.875Z,2.40
2023-08-26T20:01:54.870Z,2.30
2023-08-26T20:04:41.864Z,2.20
2023-08-26T20:07:28.884Z,1.93
2023-08-26T20:10:16.090Z,2.10
2023-08-26T20:13:03.435Z,2.00
2023-08-26T20:15:50.508Z,1.83
2023-08-26T20:18:37.783Z,1.80
2023-08-26T20:21:24.784Z,2.23
2023-08-26T20:24:11.763Z,2.00
2023-08-26T20:26:58.888Z,2.00
2023-08-26T20:29:45.890Z,1.90
2023-08-26T20:32:32.895Z,1.97
2023-08-26T20:35:21.404Z,2.00
2023-08-26T20:38:08.368Z,1.73
2023-08-26T20:41:03.022Z,1.80
2023-08-26T20:43:50.032Z,1.80
2023-08-26T20:46:37.493Z,1.57
2023-08-26T20:49:24.643Z,1.80
2023-08-26T20:52:11.578Z,1.90
2023-08-26T20:54:58.631Z,1.67
2023-08-26T20:57:45.674Z,1.90
2023-08-26T21:00:32.816Z,1.70
2023-08-26T21:03:20.297Z,1.53
2023-08-26T21:06:08.675Z,1.90
2023-08-26T21:08:55.669Z,1.90
2023-08-26T21:11:42.737Z,1.93
2023-08-26T21:14:29.725Z,1.83
2023-08-26T21:17:16.821Z,1.60
2023-08-26T21:20:08.163Z,1.53
2023-08-26T21:22:55.511Z,2.03
2023-08-26T21:25:42.483Z,1.50
2023-08-26T21:28:30.362Z,2.00
2023-08-26T21:31:17.447Z,1.63
2023-08-26T21:34:04.511Z,1.67
2023-08-26T21:36:51.469Z,1.90
2023-08-26T21:39:38.464Z,2.00
2023-08-26T21:42:25.511Z,2.00
2023-08-26T21:45:12.611Z,1.70
2023-08-26T21:47:59.606Z,1.77
2023-08-26T21:50:46.628Z,1.80
2023-08-26T21:53:33.886Z,1.97
2023-08-26T21:56:20.988Z,1.90
2023-08-26T21:59:07.977Z,2.10
2023-08-26T22:01:55.055Z,2.30
2023-08-26T22:04:42.032Z,2.20
2023-08-26T22:07:29.008Z,2.10
2023-08-26T22:10:15.980Z,1.90
2023-08-26T22:13:04.690Z,2.23
2023-08-26T22:15:52.400Z,2.17
2023-08-26T22:18:39.478Z,2.17
2023-08-26T22:21:26.487Z,2.37
2023-08-26T22:24:13.457Z,2.23
2023-08-26T22:27:00.762Z,2.40
2023-08-26T22:29:47.751Z,2.33
2023-08-26T22:32:35.541Z,2.30
2023-08-26T22:35:22.579Z,2.30
2023-08-26T22:38:10.107Z,2.57
2023-08-26T22:40:57.133Z,2.77
2023-08-26T22:43:46.920Z,2.60
2023-08-26T22:46:33.906Z,2.10
2023-08-26T22:49:20.901Z,2.37
2023-08-26T22:52:07.893Z,2.40
2023-08-26T22:54:55.001Z,2.40
2023-08-26T22:57:41.996Z,2.90
2023-08-26T23:00:28.941Z,2.60
2023-08-26T23:03:16.412Z,2.57
2023-08-26T23:06:04.069Z,3.17
2023-08-26T23:08:52.439Z,2.20
2023-08-26T23:11:39.400Z,2.17
2023-08-26T23:14:26.535Z,2.70
2023-08-26T23:17:13.536Z,2.60
2023-08-26T23:20:00.814Z,2.70
2023-08-26T23:22:48.798Z,2.53
2023-08-26T23:25:35.821Z,2.70
2023-08-26T23:28:24.526Z,2.67
2023-08-26T23:31:11.656Z,2.50
2023-08-26T23:34:03.422Z,2.70
2023-08-26T23:36:56.451Z,2.67
2023-08-26T23:39:43.578Z,2.60
2023-08-26T23:42:30.638Z,2.20
2023-08-26T23:45:17.833Z,2.60
2023-08-26T23:48:07.328Z,2.60
2023-08-26T23:50:54.582Z,2.50
2023-08-26T23:53:41.525Z,2.40
2023-08-26T23:56:28.504Z,2.50
2023-08-26T23:59:15.481Z,2.60
